createdAt,value
2023-04-27T00:01:14.025Z,1.55
2023-04-27T00:04:18.238Z,1.52
2023-04-27T00:07:21.689Z,1.42
2023-04-27T00:10:25.980Z,1.52
2023-04-27T00:13:30.696Z,1.45
2023-04-27T00:16:46.825Z,1.45
2023-04-27T00:19:54.575Z,1.65
2023-04-27T00:22:58.516Z,1.30
2023-04-27T00:26:02.169Z,1.90
2023-04-27T00:29:10.062Z,1.73
2023-04-27T00:32:16.514Z,1.60
2023-04-27T00:35:21.744Z,1.67
2023-04-27T00:38:25.238Z,1.30
2023-04-27T00:41:28.568Z,1.45
2023-04-27T00:44:33.045Z,1.58
2023-04-27T00:47:39.075Z,1.73
2023-04-27T00:50:47.598Z,1.38
2023-04-27T00:53:53.855Z,1.33
2023-04-27T00:56:59.733Z,1.30
2023-04-27T01:00:04.074Z,1.42
2023-04-27T01:03:09.422Z,1.70
2023-04-27T01:06:14.183Z,1.58
2023-04-27T01:09:21.719Z,1.70
2023-04-27T01:12:27.411Z,1.35
2023-04-27T01:15:34.664Z,1.70
2023-04-27T01:18:41.848Z,1.48
2023-04-27T01:21:47.059Z,1.70
2023-04-27T01:24:52.414Z,1.48
2023-04-27T01:28:00.177Z,1.77
2023-04-27T01:31:04.149Z,1.30
2023-04-27T01:34:07.797Z,1.77
2023-04-27T01:37:12.210Z,1.23
2023-04-27T01:40:17.414Z,1.60
2023-04-27T01:43:21.180Z,1.50
2023-04-27T01:46:29.476Z,1.58
2023-04-27T01:49:33.144Z,1.27
2023-04-27T01:52:37.733Z,1.85
2023-04-27T01:55:42.582Z,1.38
2023-04-27T01:58:46.611Z,1.80
2023-04-27T02:01:50.766Z,1.58
2023-04-27T02:04:55.334Z,1.55
2023-04-27T02:07:59.606Z,1.45
2023-04-27T02:11:05.441Z,1.60
2023-04-27T02:14:09.015Z,1.65
2023-04-27T02:17:13.186Z,1.70
2023-04-27T02:20:23.139Z,1.33
2023-04-27T02:23:27.615Z,1.60
2023-04-27T02:26:34.638Z,1.23
2023-04-27T02:29:40.738Z,1.75
2023-04-27T02:32:44.709Z,1.98
2023-04-27T02:35:50.642Z,1.80
2023-04-27T02:39:00.270Z,1.75
2023-04-27T02:42:20.999Z,2.17
2023-04-27T02:45:26.508Z,1.50
2023-04-27T02:48:30.846Z,2.47
2023-04-27T02:51:34.651Z,2.10
2023-04-27T02:54:40.174Z,1.85
2023-04-27T02:57:45.172Z,1.48
2023-04-27T03:00:56.921Z,1.77
2023-04-27T03:04:02.433Z,1.85
2023-04-27T03:07:06.288Z,1.90
2023-04-27T03:10:10.558Z,1.92
2023-04-27T03:13:14.402Z,2.00
2023-04-27T03:16:23.934Z,1.85
2023-04-27T03:19:33.372Z,1.73
2023-04-27T03:22:37.628Z,2.13
2023-04-27T03:25:41.462Z,2.40
2023-04-27T03:28:45.162Z,2.75
2023-04-27T03:31:55.321Z,1.95
2023-04-27T03:34:59.313Z,2.38
2023-04-27T03:38:06.269Z,2.65
2023-04-27T03:41:10.581Z,2.13
2023-04-27T03:44:28.177Z,2.47
2023-04-27T03:47:34.237Z,1.98
2023-04-27T03:50:38.138Z,2.28
2023-04-27T03:53:42.206Z,2.67
2023-04-27T03:56:46.663Z,3.03
2023-04-27T03:59:50.744Z,2.53
2023-04-27T04:02:55.708Z,2.30
2023-04-27T04:05:59.563Z,2.70
2023-04-27T04:09:03.622Z,2.67
2023-04-27T04:12:09.723Z,3.05
2023-04-27T04:15:13.591Z,2.60
2023-04-27T04:18:22.746Z,2.83
2023-04-27T04:21:26.911Z,2.70
2023-04-27T04:24:30.809Z,2.90
2023-04-27T04:27:34.384Z,2.83
2023-04-27T04:30:39.552Z,2.38
2023-04-27T04:33:46.142Z,2.35
2023-04-27T04:36:53.638Z,3.17
2023-04-27T04:39:57.709Z,2.20
2023-04-27T04:43:03.302Z,2.35
2023-04-27T04:46:10.778Z,2.58
2023-04-27T04:49:24.944Z,2.85
2023-04-27T04:52:28.664Z,2.45
2023-04-27T04:55:32.838Z,2.50
2023-04-27T04:58:37.159Z,2.92
2023-04-27T05:01:42.180Z,2.65
2023-04-27T05:04:47.528Z,2.50
2023-04-27T05:07:51.133Z,2.90
2023-04-27T05:10:55.634Z,2.63
2023-04-27T05:14:01.754Z,2.90
2023-04-27T05:17:05.321Z,2.65
2023-04-27T05:20:12.108Z,2.50
2023-04-27T05:23:16.338Z,2.30
2023-04-27T05:26:20.078Z,2.28
2023-04-27T05:29:28.372Z,2.25
2023-04-27T05:32:33.594Z,2.58
2023-04-27T05:35:40.436Z,2.00
2023-04-27T05:38:46.336Z,1.88
2023-04-27T05:41:51.420Z,1.88
2023-04-27T05:44:56.119Z,2.97
2023-04-27T05:48:00.426Z,2.20
2023-04-27T05:51:05.679Z,2.08
2023-04-27T05:54:11.017Z,2.20
2023-04-27T05:57:17.578Z,2.05
2023-04-27T06:00:22.632Z,1.70
2023-04-27T06:03:28.246Z,2.30
2023-04-27T06:06:35.395Z,2.17
2023-04-27T06:09:39.225Z,2.17
2023-04-27T06:12:46.447Z,1.92
2023-04-27T06:15:51.185Z,1.80
2023-04-27T06:18:57.892Z,1.92
2023-04-27T06:22:05.437Z,2.28
2023-04-27T06:25:11.134Z,2.55
2023-04-27T06:28:14.856Z,2.15
2023-04-27T06:31:20.840Z,2.08
2023-04-27T06:34:25.594Z,2.10
2023-04-27T06:37:30.617Z,1.88
2023-04-27T06:40:35.383Z,2.08
2023-04-27T06:43:43.114Z,1.95
2023-04-27T06:46:46.829Z,2.10
2023-04-27T06:49:51.302Z,1.90
2023-04-27T06:52:57.418Z,2.08
2023-04-27T06:56:02.872Z,1.63
2023-04-27T06:59:06.788Z,2.20
2023-04-27T07:02:10.926Z,1.95
2023-04-27T07:05:14.615Z,2.28
2023-04-27T07:08:20.581Z,1.25
2023-04-27T07:11:24.306Z,1.75
2023-04-27T07:14:28.026Z,1.60
2023-04-27T07:17:32.582Z,1.80
2023-04-27T07:20:39.488Z,1.55
2023-04-27T07:23:46.440Z,1.83
2023-04-27T07:26:50.041Z,2.25
2023-04-27T07:29:56.701Z,1.67
2023-04-27T07:33:03.351Z,1.90
2023-04-27T07:36:07.928Z,1.90
2023-04-27T07:39:13.287Z,1.67
2023-04-27T07:42:17.482Z,1.65
2023-04-27T07:45:31.644Z,1.65
2023-04-27T07:48:35.505Z,1.67
2023-04-27T07:51:40.220Z,1.58
2023-04-27T07:54:45.430Z,1.50
2023-04-27T07:57:56.389Z,1.48
2023-04-27T08:01:01.135Z,1.08
2023-04-27T08:04:06.244Z,1.30
2023-04-27T08:07:10.709Z,1.40
2023-04-27T08:10:20.463Z,1.20
2023-04-27T08:13:26.264Z,1.02
2023-04-27T08:16:30.364Z,1.33
2023-04-27T08:19:34.419Z,0.77
2023-04-27T08:22:38.172Z,1.40
2023-04-27T08:25:45.388Z,1.52
2023-04-27T08:28:51.053Z,0.80
2023-04-27T08:31:56.882Z,0.93
2023-04-27T08:35:01.039Z,1.00
2023-04-27T08:38:10.192Z,0.75
2023-04-27T08:41:21.884Z,1.08
2023-04-27T08:44:26.060Z,1.05
2023-04-27T08:47:41.744Z,0.80
2023-04-27T08:50:54.914Z,0.90
2023-04-27T08:54:00.292Z,1.35
2023-04-27T08:57:10.522Z,1.00
2023-04-27T09:00:14.468Z,1.20
2023-04-27T09:03:23.927Z,1.05
2023-04-27T09:06:31.818Z,1.20
2023-04-27T09:09:38.890Z,0.95
2023-04-27T09:12:43.774Z,1.20
2023-04-27T09:15:49.275Z,1.33
2023-04-27T09:18:54.342Z,1.15
2023-04-27T09:22:11.160Z,1.15
2023-04-27T09:25:24.767Z,1.27
2023-04-27T09:28:30.990Z,1.38
2023-04-27T09:31:40.547Z,1.45
2023-04-27T09:34:45.530Z,1.08
2023-04-27T09:38:00.228Z,1.15
2023-04-27T09:41:06.331Z,1.00
2023-04-27T09:44:17.155Z,1.33
2023-04-27T09:47:21.602Z,1.17
2023-04-27T09:50:26.140Z,0.88
2023-04-27T09:53:32.162Z,0.98
2023-04-27T09:56:48.406Z,1.17
2023-04-27T10:00:10.915Z,1.60
2023-04-27T10:03:19.542Z,0.98
2023-04-27T10:06:41.506Z,1.10
2023-04-27T10:09:47.325Z,1.15
2023-04-27T10:12:59.788Z,1.25
2023-04-27T10:16:18.151Z,1.13
2023-04-27T10:19:24.746Z,1.15
2023-04-27T10:22:39.954Z,1.10
2023-04-27T10:25:44.898Z,0.90
2023-04-27T10:28:57.840Z,1.00
2023-04-27T10:32:09.498Z,1.35
2023-04-27T10:35:20.274Z,0.82
2023-04-27T10:38:29.329Z,1.10
2023-04-27T10:41:39.272Z,1.48
2023-04-27T10:44:42.786Z,2.55
2023-04-27T10:47:48.315Z,1.65
2023-04-27T10:50:54.048Z,1.10
2023-04-27T10:53:57.845Z,1.20
2023-04-27T10:57:06.791Z,1.50
2023-04-27T11:00:16.230Z,1.10
2023-04-27T11:03:26.733Z,1.40
2023-04-27T11:06:33.772Z,1.27
2023-04-27T11:09:37.729Z,1.00
2023-04-27T11:12:42.329Z,1.52
2023-04-27T11:15:50.562Z,1.27
2023-04-27T11:18:57.965Z,1.35
2023-04-27T11:22:07.332Z,1.20
2023-04-27T11:25:14.726Z,1.00
2023-04-27T11:28:21.864Z,0.77
2023-04-27T11:31:26.851Z,1.00
2023-04-27T11:34:34.414Z,1.35
2023-04-27T11:37:39.367Z,1.15
2023-04-27T11:40:42.915Z,1.08
2023-04-27T11:43:51.391Z,1.00
2023-04-27T11:46:57.618Z,1.30
2023-04-27T11:50:08.124Z,1.15
2023-04-27T11:53:12.685Z,1.23
2023-04-27T11:56:20.115Z,0.93
2023-04-27T11:59:27.483Z,1.13
2023-04-27T12:02:33.422Z,1.20
2023-04-27T12:05:39.196Z,1.25
2023-04-27T12:08:43.180Z,0.82
2023-04-27T12:11:47.196Z,1.10
2023-04-27T12:14:51.854Z,1.20
2023-04-27T12:17:55.903Z,0.98
2023-04-27T12:21:03.102Z,1.52
2023-04-27T12:24:07.184Z,1.27
2023-04-27T12:27:11.371Z,1.42
2023-04-27T12:30:18.431Z,1.30
2023-04-27T12:33:25.399Z,1.13
2023-04-27T12:36:30.625Z,1.20
2023-04-27T12:39:34.708Z,1.40
2023-04-27T12:42:38.353Z,1.13
2023-04-27T12:45:41.998Z,1.30
2023-04-27T12:48:46.599Z,1.10
2023-04-27T12:51:52.756Z,1.30
2023-04-27T12:54:59.199Z,1.67
2023-04-27T12:58:06.601Z,1.30
2023-04-27T13:01:14.935Z,1.48
2023-04-27T13:04:21.791Z,1.50
2023-04-27T13:07:31.003Z,1.35
2023-04-27T13:10:34.888Z,1.33
2023-04-27T13:13:38.750Z,1.15
2023-04-27T13:16:44.530Z,1.27
2023-04-27T13:19:48.519Z,1.55
2023-04-27T13:22:54.813Z,1.25
2023-04-27T13:26:00.172Z,1.10
2023-04-27T13:29:06.652Z,1.10
2023-04-27T13:32:10.165Z,1.17
2023-04-27T13:35:16.135Z,1.52
2023-04-27T13:38:21.520Z,1.38
2023-04-27T13:41:25.189Z,1.80
2023-04-27T13:44:28.595Z,1.10
2023-04-27T13:47:37.020Z,1.20
2023-04-27T13:50:40.589Z,1.80
2023-04-27T13:53:46.501Z,1.50
2023-04-27T13:56:51.178Z,1.20
2023-04-27T13:59:55.354Z,1.48
2023-04-27T14:02:59.393Z,1.10
2023-04-27T14:06:06.291Z,1.02
2023-04-27T14:09:14.540Z,1.27
2023-04-27T14:12:21.496Z,1.35
2023-04-27T14:15:25.314Z,1.58
2023-04-27T14:18:32.535Z,1.20
2023-04-27T14:21:36.441Z,1.40
2023-04-27T14:24:41.412Z,1.27
2023-04-27T14:27:47.339Z,1.30
2023-04-27T14:30:50.920Z,1.20
2023-04-27T14:33:59.001Z,1.23
2023-04-27T14:37:02.573Z,1.60
2023-04-27T14:40:09.296Z,1.40
2023-04-27T14:43:13.379Z,1.35
2023-04-27T14:46:20.769Z,1.80
2023-04-27T14:49:25.489Z,1.55
2023-04-27T14:52:35.537Z,2.10
2023-04-27T14:55:57.797Z,1.15
2023-04-27T14:59:03.960Z,1.92
2023-04-27T15:02:09.314Z,1.65
2023-04-27T15:05:13.284Z,1.65
2023-04-27T15:08:16.954Z,1.65
2023-04-27T15:11:20.652Z,1.80
2023-04-27T15:14:26.354Z,1.73
2023-04-27T15:17:32.124Z,1.95
2023-04-27T15:20:39.040Z,1.45
2023-04-27T15:23:43.182Z,1.73
2023-04-27T15:26:48.935Z,1.73
2023-04-27T15:29:55.159Z,1.50
2023-04-27T15:32:58.729Z,1.60
2023-04-27T15:36:03.868Z,1.55
2023-04-27T15:39:14.540Z,1.70
2023-04-27T15:42:18.588Z,1.48
2023-04-27T15:45:23.866Z,1.35
2023-04-27T15:48:27.838Z,1.95
2023-04-27T15:51:32.668Z,2.00
2023-04-27T15:54:36.250Z,1.90
2023-04-27T15:57:39.926Z,1.58
2023-04-27T16:00:51.349Z,2.00
2023-04-27T16:03:55.098Z,2.00
2023-04-27T16:07:04.741Z,1.85
2023-04-27T16:10:12.114Z,1.90
2023-04-27T16:13:15.724Z,1.20
2023-04-27T16:16:21.089Z,1.80
2023-04-27T16:19:28.701Z,1.90
2023-04-27T16:22:32.565Z,1.75
2023-04-27T16:25:38.346Z,1.73
2023-04-27T16:28:42.114Z,1.30
2023-04-27T16:31:48.895Z,1.70
2023-04-27T16:34:54.306Z,1.80
2023-04-27T16:38:01.380Z,1.52
2023-04-27T16:41:06.931Z,2.00
2023-04-27T16:44:11.654Z,1.58
2023-04-27T16:47:19.424Z,1.88
2023-04-27T16:50:31.700Z,1.65
2023-04-27T16:53:40.407Z,1.90
2023-04-27T16:56:46.684Z,1.70
2023-04-27T16:59:55.192Z,1.67
2023-04-27T17:03:05.289Z,1.77
2023-04-27T17:06:11.207Z,1.80
2023-04-27T17:09:15.675Z,2.15
2023-04-27T17:12:22.579Z,2.15
2023-04-27T17:15:28.586Z,2.20
2023-04-27T17:18:34.549Z,2.17
2023-04-27T17:21:42.589Z,2.20
2023-04-27T17:24:49.400Z,1.83
2023-04-27T17:27:52.974Z,2.15
2023-04-27T17:31:01.060Z,1.95
2023-04-27T17:34:07.631Z,1.88
2023-04-27T17:37:11.333Z,1.63
2023-04-27T17:40:19.582Z,2.22
2023-04-27T17:43:26.990Z,2.40
2023-04-27T17:46:33.399Z,2.70
2023-04-27T17:49:39.965Z,2.22
2023-04-27T17:52:44.471Z,2.50
2023-04-27T17:55:48.427Z,2.05
2023-04-27T17:58:54.458Z,1.88
2023-04-27T18:01:59.010Z,1.92
2023-04-27T18:05:04.947Z,2.13
2023-04-27T18:08:08.389Z,2.15
2023-04-27T18:11:14.632Z,1.95
2023-04-27T18:14:19.643Z,2.15
2023-04-27T18:17:34.232Z,1.98
2023-04-27T18:20:39.562Z,1.90
2023-04-27T18:23:44.548Z,2.17
2023-04-27T18:26:49.566Z,2.17
2023-04-27T18:29:55.645Z,2.30
2023-04-27T18:32:59.418Z,2.33
2023-04-27T18:36:07.647Z,2.13
2023-04-27T18:39:18.127Z,1.98
2023-04-27T18:42:27.186Z,1.63
2023-04-27T18:45:34.664Z,2.17
2023-04-27T18:48:38.386Z,2.13
2023-04-27T18:51:43.759Z,2.08
2023-04-27T18:54:49.132Z,2.50
2023-04-27T18:57:53.094Z,2.03
2023-04-27T19:01:01.099Z,2.40
2023-04-27T19:04:10.910Z,2.13
2023-04-27T19:07:20.866Z,2.65
2023-04-27T19:10:32.804Z,2.47
2023-04-27T19:13:43.939Z,2.50
2023-04-27T19:16:47.532Z,2.65
2023-04-27T19:19:52.025Z,2.60
2023-04-27T19:22:59.835Z,2.60
2023-04-27T19:26:12.991Z,3.03
2023-04-27T19:29:18.003Z,2.75
2023-04-27T19:32:26.915Z,2.65
2023-04-27T19:35:33.990Z,2.70
2023-04-27T19:38:41.607Z,2.50
2023-04-27T19:41:45.668Z,2.60
2023-04-27T19:44:49.664Z,2.65
2023-04-27T19:47:54.029Z,2.60
2023-04-27T19:51:01.459Z,2.67
2023-04-27T19:54:07.724Z,2.75
2023-04-27T19:57:12.964Z,2.78
2023-04-27T20:00:16.740Z,2.55
2023-04-27T20:03:22.377Z,2.70
2023-04-27T20:06:26.438Z,3.55
2023-04-27T20:09:34.321Z,3.30
2023-04-27T20:12:54.472Z,3.50
2023-04-27T20:16:02.638Z,3.33
2023-04-27T20:19:07.230Z,4.13
2023-04-27T20:22:11.129Z,5.13
2023-04-27T20:25:21.159Z,5.00
2023-04-27T20:28:25.797Z,4.10
2023-04-27T20:31:29.718Z,3.60
2023-04-27T20:34:34.668Z,3.55
2023-04-27T20:37:38.518Z,3.28
2023-04-27T20:40:45.777Z,4.38
2023-04-27T20:43:52.352Z,2.40
2023-04-27T20:46:59.037Z,3.22
2023-04-27T20:50:03.650Z,3.03
2023-04-27T20:53:08.520Z,3.15
2023-04-27T20:56:13.886Z,2.92
2023-04-27T20:59:18.697Z,4.15
2023-04-27T21:02:26.060Z,4.93
2023-04-27T21:05:31.749Z,4.18
2023-04-27T21:08:36.855Z,3.70
2023-04-27T21:11:44.796Z,3.78
2023-04-27T21:14:50.336Z,3.72
2023-04-27T21:17:53.992Z,4.05
2023-04-27T21:20:59.639Z,4.00
2023-04-27T21:24:10.836Z,3.83
2023-04-27T21:27:19.192Z,4.20
2023-04-27T21:30:23.570Z,4.90
2023-04-27T21:33:30.517Z,4.43
2023-04-27T21:36:34.239Z,4.05
2023-04-27T21:39:38.532Z,3.67
2023-04-27T21:42:44.415Z,4.35
2023-04-27T21:45:51.219Z,3.58
2023-04-27T21:48:55.244Z,3.80
2023-04-27T21:52:04.989Z,3.70
2023-04-27T21:55:09.995Z,3.50
2023-04-27T21:58:21.022Z,3.65
2023-04-27T22:01:29.807Z,3.60
2023-04-27T22:04:33.586Z,3.85
2023-04-27T22:07:41.295Z,3.72
2023-04-27T22:10:45.324Z,3.17
2023-04-27T22:13:53.325Z,3.63
2023-04-27T22:16:58.539Z,3.97
2023-04-27T22:20:09.014Z,3.65
2023-04-27T22:23:13.136Z,3.75
2023-04-27T22:26:17.774Z,3.78
2023-04-27T22:29:26.978Z,3.60
2023-04-27T22:32:33.863Z,4.47
2023-04-27T22:35:39.078Z,3.17
2023-04-27T22:38:46.515Z,3.35
2023-04-27T22:42:00.137Z,4.07
2023-04-27T22:45:09.359Z,3.13
2023-04-27T22:48:18.663Z,3.55
2023-04-27T22:51:23.926Z,3.28
2023-04-27T22:54:31.285Z,3.08
2023-04-27T22:57:36.115Z,4.00
2023-04-27T23:00:42.504Z,3.70
2023-04-27T23:03:46.157Z,3.58
2023-04-27T23:06:53.879Z,3.58
2023-04-27T23:10:00.763Z,3.63
2023-04-27T23:13:06.199Z,4.70
2023-04-27T23:16:14.611Z,3.17
2023-04-27T23:19:19.073Z,3.38
2023-04-27T23:22:23.199Z,3.55
2023-04-27T23:25:26.803Z,3.97
2023-04-27T23:28:30.256Z,3.40
2023-04-27T23:31:38.916Z,3.60
2023-04-27T23:34:56.903Z,3.90
2023-04-27T23:38:00.876Z,4.25
2023-04-27T23:41:05.913Z,3.95
2023-04-27T23:44:12.248Z,4.25
2023-04-27T23:47:26.505Z,3.97
2023-04-27T23:50:29.828Z,3.70
2023-04-27T23:53:33.517Z,3.35
2023-04-27T23:56:38.035Z,3.30
2023-04-27T23:59:42.623Z,3.67
